Union, WV

4:30 AM EDT on April 21, 2015 (GMT -0400)
Roanoke Regional-Woodrum | | Change Station
CLOSE
Current Station
Airport
Location: Roanoke,
Elevation: 1175 ft
Nearby Weather Stations
Active Advisory: Flood Warning Active Notice: Record Report, Local Storm Report

Elev 1175 ft 37.32 °N, 79.97 °W | Updated 36 minutes ago

Mostly Cloudy
Mostly Cloudy
53 °F
Feels Like 53 °F
N
14
Wind Variable Wind from WNW

Today
High -- | Low -- °F
--% Chance of Precip.
Yesterday
High -- | Low -- °F
Precip. -- in
6:39 AM 8:02 PM
Waxing Crescent, 9% visible
Pressure 29.76 in
Visibility 10.0 miles
Clouds Few 4700 ft
Dew Point 39 °F
Humidity 59%
Rainfall 0.00 in
Snow Depth Not available.
UV 0 out of 12
Pollen 8.40 out of 12
Air Quality Not available.
Flu Activity Sporadic
METAR KROA 210754Z 29012KT 10SM FEW047 12/04 A2978 RMK AO2 SLP078 T01170039

More Conditions Fewer Conditions

Pressure 29.76 in
Visibility 10.0 miles
Clouds Few 4700 ft
Dew Point 39 °F
Humidity 59%
Rainfall 0.00 in
Snow Depth Not available.
UV 0 out of 12
Pollen 8.40 out of 12
Air Quality Not available.
Flu Activity Sporadic
METAR KROA 210754Z 29012KT 10SM FEW047 12/04 A2978 RMK AO2 SLP078 T01170039

More Conditions Fewer Conditions

10-Day Weather Forecast

Almanac

Astronomy

Apr. 21, 2015 Rise Set
Actual Time
Civil Twilight
Nautical Twilight
Astronomical Twilight
Moon
Length of Visible Light
Length of Day
Tomorrow will be .
, % of the Moon is Illuminated

Today's Extremes

State Highs State Lows

Community

WunderPhotos

Upload Photos

1,815,328 photos uploaded!

WunderBlogs® & News

Nearby

Air Quality

  Air Quality AQ Index Pollutant
Not available.

Snow Depth

Station Depth Elevation

Earthquake Activity

City Distance Mag. Time & Date
Minimum magnitude displayed is 2.5.

Coastal Water Temperatures

Place Temperature

Stations

Nearby Weather Stations

Station Location Temp. Windchill Dew Point Humidity Wind Precip. Elev Updated Type
                   
Flood Warning
Statement as of 11:12 PM EDT on April 20, 2015

The Flood Warning continues for
the New River at Glen Lyn.
* From after midnight tomorrow until Tuesday afternoon
* at 10pm Monday the stage was 14.7 feet.

* Flood stage is 15.0 feet.
* Forecast to rise above flood stage shortly after midnight tonight
reaching 15.3 feet over the next few hours before falling. The
river will fall below flood stage by early Tuesday.
* At 15.0 feet... low spots along Route 649 (lurich road) upstream
from the gage are flooded.
* This crest compares to a previous crest of 14.5 feet on Mar 13 2010.


Lat... Lon 3723 8065 3733 8082 3746 8097 3754 8078
          3742 8072 3727 8053